sensor_id;sensor_type;location;lat;lon;timestamp;pressure;altitude;pressure_sealevel;temperature;humidity
36798;BME280;22748;8.426;99.512;2023-02-20T00:01:02;100837.41;;;28.25;60.76
36798;BME280;22748;8.426;99.512;2023-02-20T00:03:32;100841.75;;;28.26;60.36
36798;BME280;22748;8.426;99.512;2023-02-20T00:06:01;100836.78;;;28.23;60.85
36798;BME280;22748;8.426;99.512;2023-02-20T00:08:34;100846.47;;;28.17;60.98
36798;BME280;22748;8.426;99.512;2023-02-20T00:11:08;100832.00;;;28.12;61.10
36798;BME280;22748;8.426;99.512;2023-02-20T00:13:37;100838.78;;;28.07;60.99
36798;BME280;22748;8.426;99.512;2023-02-20T00:16:08;100843.53;;;28.05;61.40
36798;BME280;22748;8.426;99.512;2023-02-20T00:18:46;100846.84;;;28.07;61.05
36798;BME280;22748;8.426;99.512;2023-02-20T00:21:17;100857.31;;;28.02;61.17
36798;BME280;22748;8.426;99.512;2023-02-20T00:23:52;100864.97;;;27.99;61.68
36798;BME280;22748;8.426;99.512;2023-02-20T00:26:22;100854.41;;;27.97;61.65
36798;BME280;22748;8.426;99.512;2023-02-20T00:28:56;100860.22;;;28.01;61.48
36798;BME280;22748;8.426;99.512;2023-02-20T00:31:30;100862.91;;;28.01;61.73
36798;BME280;22748;8.426;99.512;2023-02-20T00:34:05;100867.81;;;27.97;61.69
36798;BME280;22748;8.426;99.512;2023-02-20T00:36:37;100859.16;;;27.95;62.01
36798;BME280;22748;8.426;99.512;2023-02-20T00:39:14;100861.63;;;27.97;61.90
36798;BME280;22748;8.426;99.512;2023-02-20T00:41:45;100865.97;;;27.98;62.00
36798;BME280;22748;8.426;99.512;2023-02-20T00:44:16;100866.59;;;28.00;62.25
36798;BME280;22748;8.426;99.512;2023-02-20T00:46:49;100870.75;;;28.02;61.94
36798;BME280;22748;8.426;99.512;2023-02-20T00:49:23;100872.78;;;28.00;61.77
36798;BME280;22748;8.426;99.512;2023-02-20T00:51:55;100875.03;;;27.90;62.45
36798;BME280;22748;8.426;99.512;2023-02-20T00:54:30;100875.66;;;27.92;62.50
36798;BME280;22748;8.426;99.512;2023-02-20T00:57:03;100879.38;;;27.98;62.47
36798;BME280;22748;8.426;99.512;2023-02-20T00:59:39;100880.84;;;28.00;62.36
36798;BME280;22748;8.426;99.512;2023-02-20T01:02:12;100877.56;;;27.98;62.28
36798;BME280;22748;8.426;99.512;2023-02-20T01:04:43;100886.44;;;27.99;62.50
36798;BME280;22748;8.426;99.512;2023-02-20T01:07:23;100894.19;;;27.87;63.55
36798;BME280;22748;8.426;99.512;2023-02-20T01:10:01;100885.53;;;27.92;63.44
36798;BME280;22748;8.426;99.512;2023-02-20T01:12:37;100891.81;;;27.99;62.91
36798;BME280;22748;8.426;99.512;2023-02-20T01:15:13;100886.03;;;28.02;63.10
36798;BME280;22748;8.426;99.512;2023-02-20T01:17:44;100896.38;;;28.05;63.54
36798;BME280;22748;8.426;99.512;2023-02-20T01:20:16;100894.13;;;28.08;63.33
36798;BME280;22748;8.426;99.512;2023-02-20T01:22:55;100898.72;;;28.15;63.38
36798;BME280;22748;8.426;99.512;2023-02-20T01:25:35;100904.25;;;28.13;63.28
36798;BME280;22748;8.426;99.512;2023-02-20T01:28:08;100900.56;;;28.14;64.03
36798;BME280;22748;8.426;99.512;2023-02-20T01:30:41;100900.16;;;28.17;64.02
36798;BME280;22748;8.426;99.512;2023-02-20T01:33:18;100908.47;;;28.22;63.86
36798;BME280;22748;8.426;99.512;2023-02-20T01:35:49;100912.22;;;28.28;63.86
36798;BME280;22748;8.426;99.512;2023-02-20T01:38:19;100915.97;;;28.34;63.90
36798;BME280;22748;8.426;99.512;2023-02-20T01:40:50;100915.19;;;28.40;63.28
36798;BME280;22748;8.426;99.512;2023-02-20T01:43:20;100910.84;;;28.45;63.42
36798;BME280;22748;8.426;99.512;2023-02-20T01:45:52;100922.88;;;28.49;63.68
36798;BME280;22748;8.426;99.512;2023-02-20T01:48:25;100920.00;;;28.51;63.47
36798;BME280;22748;8.426;99.512;2023-02-20T01:50:59;100926.97;;;28.45;63.48
36798;BME280;22748;8.426;99.512;2023-02-20T01:53:29;100929.66;;;28.45;63.95
36798;BME280;22748;8.426;99.512;2023-02-20T01:56:10;100927.25;;;28.50;64.08
36798;BME280;22748;8.426;99.512;2023-02-20T01:58:46;100924.16;;;28.54;63.52
36798;BME280;22748;8.426;99.512;2023-02-20T02:01:19;100933.06;;;28.61;63.52
36798;BME280;22748;8.426;99.512;2023-02-20T02:03:53;100931.63;;;28.65;63.84
36798;BME280;22748;8.426;99.512;2023-02-20T02:06:24;100940.97;;;28.69;63.72
36798;BME280;22748;8.426;99.512;2023-02-20T02:09:02;100934.78;;;28.75;63.51
36798;BME280;22748;8.426;99.512;2023-02-20T02:11:36;100944.75;;;28.81;63.78
36798;BME280;22748;8.426;99.512;2023-02-20T02:14:08;100939.38;;;28.88;63.69
36798;BME280;22748;8.426;99.512;2023-02-20T02:16:55;100942.06;;;28.81;64.11
36798;BME280;22748;8.426;99.512;2023-02-20T02:19:47;100944.53;;;28.89;64.06
36798;BME280;22748;8.426;99.512;2023-02-20T02:22:45;100951.81;;;28.96;63.54
36798;BME280;22748;8.426;99.512;2023-02-20T02:25:33;100954.31;;;29.04;63.56
36798;BME280;22748;8.426;99.512;2023-02-20T02:28:31;100957.63;;;29.06;63.79
36798;BME280;22748;8.426;99.512;2023-02-20T02:31:40;100965.50;;;29.07;63.53
36798;BME280;22748;8.426;99.512;2023-02-20T02:34:32;100963.84;;;29.06;63.21
36798;BME280;22748;8.426;99.512;2023-02-20T02:37:25;100961.19;;;29.13;62.86
36798;BME280;22748;8.426;99.512;2023-02-20T02:40:06;100972.19;;;29.18;62.47
36798;BME280;22748;8.426;99.512;2023-02-20T02:43:05;100964.34;;;29.23;62.49
36798;BME280;22748;8.426;99.512;2023-02-20T02:45:42;100967.22;;;29.28;62.37
36798;BME280;22748;8.426;99.512;2023-02-20T02:48:18;100967.47;;;29.33;62.41
36798;BME280;22748;8.426;99.512;2023-02-20T02:50:49;100978.44;;;29.39;61.98
36798;BME280;22748;8.426;99.512;2023-02-20T02:53:30;100972.63;;;29.42;61.23
36798;BME280;22748;8.426;99.512;2023-02-20T02:56:02;100970.19;;;29.47;60.97
36798;BME280;22748;8.426;99.512;2023-02-20T02:58:56;100967.88;;;29.50;61.27
36798;BME280;22748;8.426;99.512;2023-02-20T03:01:29;100978.47;;;29.52;60.99
36798;BME280;22748;8.426;99.512;2023-02-20T03:04:01;100976.41;;;29.54;60.93
36798;BME280;22748;8.426;99.512;2023-02-20T03:06:35;100976.81;;;29.58;61.19
36798;BME280;22748;8.426;99.512;2023-02-20T03:09:13;100981.38;;;29.64;60.79
36798;BME280;22748;8.426;99.512;2023-02-20T03:11:46;100979.09;;;29.67;60.68
36798;BME280;22748;8.426;99.512;2023-02-20T03:14:21;100972.28;;;29.71;60.57
36798;BME280;22748;8.426;99.512;2023-02-20T03:17:11;100964.41;;;29.77;60.66
36798;BME280;22748;8.426;99.512;2023-02-20T03:19:49;100973.75;;;29.81;60.63
36798;BME280;22748;8.426;99.512;2023-02-20T03:22:29;100973.34;;;29.84;60.98
36798;BME280;22748;8.426;99.512;2023-02-20T03:25:15;100973.53;;;29.89;60.69
36798;BME280;22748;8.426;99.512;2023-02-20T03:27:52;100964.00;;;29.93;60.90
36798;BME280;22748;8.426;99.512;2023-02-20T03:30:39;100956.13;;;29.98;60.46
36798;BME280;22748;8.426;99.512;2023-02-20T03:33:16;100954.47;;;30.04;60.89
36798;BME280;22748;8.426;99.512;2023-02-20T03:36:05;100947.22;;;30.04;60.27
36798;BME280;22748;8.426;99.512;2023-02-20T03:38:51;100950.72;;;30.05;60.33
36798;BME280;22748;8.426;99.512;2023-02-20T03:41:47;100943.91;;;30.02;60.58
36798;BME280;22748;8.426;99.512;2023-02-20T03:44:31;100945.34;;;30.05;60.63
36798;BME280;22748;8.426;99.512;2023-02-20T03:47:05;100943.50;;;30.12;60.20
36798;BME280;22748;8.426;99.512;2023-02-20T03:49:39;100938.09;;;30.19;59.77
36798;BME280;22748;8.426;99.512;2023-02-20T03:52:18;100931.25;;;30.23;60.21
36798;BME280;22748;8.426;99.512;2023-02-20T03:54:54;100931.25;;;30.29;60.14
36798;BME280;22748;8.426;99.512;2023-02-20T03:57:38;100921.72;;;30.33;60.01
36798;BME280;22748;8.426;99.512;2023-02-20T04:00:14;100923.78;;;30.38;59.90
36798;BME280;22748;8.426;99.512;2023-02-20T04:02:46;100917.94;;;30.41;59.41
36798;BME280;22748;8.426;99.512;2023-02-20T04:05:18;100917.94;;;30.41;59.23
36798;BME280;22748;8.426;99.512;2023-02-20T04:07:51;100904.47;;;30.41;59.28
36798;BME280;22748;8.426;99.512;2023-02-20T04:10:25;100894.31;;;30.43;58.99
36798;BME280;22748;8.426;99.512;2023-02-20T04:12:59;100898.06;;;30.42;58.38
36798;BME280;22748;8.426;99.512;2023-02-20T04:15:31;100890.56;;;30.51;57.88
36798;BME280;22748;8.426;99.512;2023-02-20T04:18:06;100886.78;;;30.59;57.92
36798;BME280;22748;8.426;99.512;2023-02-20T04:20:36;100871.84;;;30.63;57.39
36798;BME280;22748;8.426;99.512;2023-02-20T04:23:14;100876.16;;;30.64;57.48
36798;BME280;22748;8.426;99.512;2023-02-20T04:25:45;100869.16;;;30.63;57.60
36798;BME280;22748;8.426;99.512;2023-02-20T04:28:19;100858.56;;;30.61;57.30
36798;BME280;22748;8.426;99.512;2023-02-20T04:31:06;100859.59;;;30.67;57.25
36798;BME280;22748;8.426;99.512;2023-02-20T04:33:39;100862.66;;;30.77;57.18
36798;BME280;22748;8.426;99.512;2023-02-20T04:36:11;100850.59;;;30.86;56.85
36798;BME280;22748;8.426;99.512;2023-02-20T04:38:42;100845.34;;;30.91;56.64
36798;BME280;22748;8.426;99.512;2023-02-20T04:41:12;100845.53;;;30.96;56.42
36798;BME280;22748;8.426;99.512;2023-02-20T04:43:46;100834.31;;;31.00;55.38
36798;BME280;22748;8.426;99.512;2023-02-20T04:46:37;100832.59;;;31.05;55.30
36798;BME280;22748;8.426;99.512;2023-02-20T04:49:08;100825.56;;;31.04;55.00
36798;BME280;22748;8.426;99.512;2023-02-20T04:51:41;100823.88;;;31.10;54.90
36798;BME280;22748;8.426;99.512;2023-02-20T04:54:14;100826.13;;;31.13;54.59
36798;BME280;22748;8.426;99.512;2023-02-20T04:56:48;100818.84;;;31.13;54.60
36798;BME280;22748;8.426;99.512;2023-02-20T04:59:22;100806.41;;;31.12;54.39
36798;BME280;22748;8.426;99.512;2023-02-20T05:01:51;100806.16;;;31.14;54.75
36798;BME280;22748;8.426;99.512;2023-02-20T05:04:22;100799.53;;;31.16;54.65
36798;BME280;22748;8.426;99.512;2023-02-20T05:06:55;100788.75;;;31.16;55.06
36798;BME280;22748;8.426;99.512;2023-02-20T05:09:24;100785.44;;;31.14;54.74
36798;BME280;22748;8.426;99.512;2023-02-20T05:11:53;100778.16;;;31.15;54.13
36798;BME280;22748;8.426;99.512;2023-02-20T05:14:26;100774.59;;;31.21;53.81
36798;BME280;22748;8.426;99.512;2023-02-20T05:16:58;100755.19;;;31.31;53.68
36798;BME280;22748;8.426;99.512;2023-02-20T05:19:29;100757.81;;;31.37;53.28
36798;BME280;22748;8.426;99.512;2023-02-20T05:22:11;100752.63;;;31.43;53.24
36798;BME280;22748;8.426;99.512;2023-02-20T05:24:47;100759.22;;;31.47;52.97
36798;BME280;22748;8.426;99.512;2023-02-20T05:27:16;100751.13;;;31.47;52.75
36798;BME280;22748;8.426;99.512;2023-02-20T05:29:53;100741.50;;;31.51;53.10
36798;BME280;22748;8.426;99.512;2023-02-20T05:32:26;100740.78;;;31.62;52.44
36798;BME280;22748;8.426;99.512;2023-02-20T05:34:57;100736.41;;;31.61;51.75
36798;BME280;22748;8.426;99.512;2023-02-20T05:37:28;100727.44;;;31.67;51.69
36798;BME280;22748;8.426;99.512;2023-02-20T05:40:02;100722.41;;;31.71;51.69
36798;BME280;22748;8.426;99.512;2023-02-20T05:42:31;100710.75;;;31.70;51.53
36798;BME280;22748;8.426;99.512;2023-02-20T05:45:03;100715.50;;;31.75;51.53
36798;BME280;22748;8.426;99.512;2023-02-20T05:47:36;100708.22;;;31.75;50.68
36798;BME280;22748;8.426;99.512;2023-02-20T05:50:07;100706.56;;;31.74;51.35
36798;BME280;22748;8.426;99.512;2023-02-20T05:52:40;100703.72;;;31.69;50.70
36798;BME280;22748;8.426;99.512;2023-02-20T05:55:12;100694.34;;;31.72;51.30
36798;BME280;22748;8.426;99.512;2023-02-20T05:57:52;100691.66;;;31.72;50.95
36798;BME280;22748;8.426;99.512;2023-02-20T06:00:24;100687.22;;;31.77;51.36
36798;BME280;22748;8.426;99.512;2023-02-20T06:02:55;100687.22;;;31.77;51.18
36798;BME280;22748;8.426;99.512;2023-02-20T06:05:25;100672.06;;;31.76;51.11
36798;BME280;22748;8.426;99.512;2023-02-20T06:07:56;100665.97;;;31.81;51.41
36798;BME280;22748;8.426;99.512;2023-02-20T06:10:26;100664.25;;;31.87;50.96
36798;BME280;22748;8.426;99.512;2023-02-20T06:12:58;100656.13;;;31.87;50.86
36798;BME280;22748;8.426;99.512;2023-02-20T06:15:32;100649.44;;;31.89;50.56
36798;BME280;22748;8.426;99.512;2023-02-20T06:18:02;100655.84;;;31.95;50.58
36798;BME280;22748;8.426;99.512;2023-02-20T06:20:32;100645.25;;;31.93;50.76
36798;BME280;22748;8.426;99.512;2023-02-20T06:23:01;100635.84;;;31.96;50.65
36798;BME280;22748;8.426;99.512;2023-02-20T06:25:35;100631.28;;;31.96;50.21
36798;BME280;22748;8.426;99.512;2023-02-20T06:28:05;100627.09;;;32.01;50.27
36798;BME280;22748;8.426;99.512;2023-02-20T06:30:42;100617.25;;;32.06;50.35
36798;BME280;22748;8.426;99.512;2023-02-20T06:33:14;100617.97;;;32.13;50.37
36798;BME280;22748;8.426;99.512;2023-02-20T06:35:43;100613.63;;;32.12;50.25
36798;BME280;22748;8.426;99.512;2023-02-20T06:38:23;100609.63;;;32.15;49.74
36798;BME280;22748;8.426;99.512;2023-02-20T06:40:57;100593.78;;;32.18;49.68
36798;BME280;22748;8.426;99.512;2023-02-20T06:43:27;100591.66;;;32.21;49.49
36798;BME280;22748;8.426;99.512;2023-02-20T06:45:59;100594.13;;;32.22;49.44
36798;BME280;22748;8.426;99.512;2023-02-20T06:48:29;100594.72;;;32.24;49.51
36798;BME280;22748;8.426;99.512;2023-02-20T06:50:58;100600.34;;;32.23;50.03
36798;BME280;22748;8.426;99.512;2023-02-20T06:53:27;100586.63;;;32.12;51.14
36798;BME280;22748;8.426;99.512;2023-02-20T06:55:57;100590.59;;;32.10;51.29
36798;BME280;22748;8.426;99.512;2023-02-20T06:58:28;100578.72;;;31.99;51.92
36798;BME280;22748;8.426;99.512;2023-02-20T07:01:02;100592.44;;;31.97;52.11
36798;BME280;22748;8.426;99.512;2023-02-20T07:03:31;100578.31;;;31.95;52.21
36798;BME280;22748;8.426;99.512;2023-02-20T07:06:01;100565.44;;;31.97;52.44
36798;BME280;22748;8.426;99.512;2023-02-20T07:08:34;100573.06;;;32.01;52.67
36798;BME280;22748;8.426;99.512;2023-02-20T07:11:04;100569.06;;;32.03;52.89
36798;BME280;22748;8.426;99.512;2023-02-20T07:13:36;100574.94;;;32.00;53.04
36798;BME280;22748;8.426;99.512;2023-02-20T07:16:08;100579.88;;;32.03;53.59
36798;BME280;22748;8.426;99.512;2023-02-20T07:18:40;100574.94;;;32.00;53.61
36798;BME280;22748;8.426;99.512;2023-02-20T07:21:09;100567.03;;;31.87;53.83
36798;BME280;22748;8.426;99.512;2023-02-20T07:23:39;100564.53;;;31.85;54.44
36798;BME280;22748;8.426;99.512;2023-02-20T07:26:17;100557.84;;;31.76;54.53
36798;BME280;22748;8.426;99.512;2023-02-20T07:28:49;100558.91;;;31.87;54.56
36798;BME280;22748;8.426;99.512;2023-02-20T07:31:24;100558.91;;;31.87;54.64
36798;BME280;22748;8.426;99.512;2023-02-20T07:33:55;100558.44;;;31.90;54.67
36798;BME280;22748;8.426;99.512;2023-02-20T07:36:25;100561.59;;;31.75;55.00
36798;BME280;22748;8.426;99.512;2023-02-20T07:38:55;100568.69;;;31.39;56.12
36798;BME280;22748;8.426;99.512;2023-02-20T07:41:27;100560.47;;;31.34;56.07
36798;BME280;22748;8.426;99.512;2023-02-20T07:43:59;100558.00;;;31.14;57.13
36798;BME280;22748;8.426;99.512;2023-02-20T07:46:34;100553.03;;;30.74;58.14
36798;BME280;22748;8.426;99.512;2023-02-20T07:49:05;100548.84;;;30.60;57.96
36798;BME280;22748;8.426;99.512;2023-02-20T07:51:35;100553.44;;;30.52;57.91
36798;BME280;22748;8.426;99.512;2023-02-20T07:57:16;100528.00;;;30.48;58.07
36798;BME280;22748;8.426;99.512;2023-02-20T07:59:46;100519.59;;;30.38;58.12
36798;BME280;22748;8.426;99.512;2023-02-20T08:02:20;100513.09;;;30.21;57.99
36798;BME280;22748;8.426;99.512;2023-02-20T08:04:51;100510.91;;;30.36;58.49
36798;BME280;22748;8.426;99.512;2023-02-20T08:07:26;100512.66;;;30.49;58.90
36798;BME280;22748;8.426;99.512;2023-02-20T08:09:58;100508.63;;;30.58;59.78
36798;BME280;22748;8.426;99.512;2023-02-20T08:12:32;100499.72;;;30.76;60.09
36798;BME280;22748;8.426;99.512;2023-02-20T08:15:02;100498.00;;;30.82;60.54
36798;BME280;22748;8.426;99.512;2023-02-20T08:17:35;100498.22;;;30.80;60.62
36798;BME280;22748;8.426;99.512;2023-02-20T08:20:12;100497.94;;;30.88;59.68
36798;BME280;22748;8.426;99.512;2023-02-20T08:22:47;100497.31;;;31.05;58.79
36798;BME280;22748;8.426;99.512;2023-02-20T08:25:17;100495.50;;;31.17;58.32
36798;BME280;22748;8.426;99.512;2023-02-20T08:27:48;100479.00;;;31.25;58.50
36798;BME280;22748;8.426;99.512;2023-02-20T08:30:20;100479.72;;;31.32;58.03
36798;BME280;22748;8.426;99.512;2023-02-20T08:32:53;100481.53;;;31.39;57.73
36798;BME280;22748;8.426;99.512;2023-02-20T08:35:24;100485.72;;;31.34;57.31
36798;BME280;22748;8.426;99.512;2023-02-20T08:37:53;100483.25;;;31.33;56.77
36798;BME280;22748;8.426;99.512;2023-02-20T08:40:24;100481.03;;;31.42;56.82
36798;BME280;22748;8.426;99.512;2023-02-20T08:42:59;100480.28;;;31.53;56.51
36798;BME280;22748;8.426;99.512;2023-02-20T08:45:28;100478.09;;;31.62;56.35
36798;BME280;22748;8.426;99.512;2023-02-20T08:48:00;100477.41;;;31.66;55.90
36798;BME280;22748;8.426;99.512;2023-02-20T08:50:29;100473.75;;;31.72;55.42
36798;BME280;22748;8.426;99.512;2023-02-20T08:53:00;100479.75;;;31.74;55.39
36798;BME280;22748;8.426;99.512;2023-02-20T08:55:31;100486.34;;;31.78;54.77
36798;BME280;22748;8.426;99.512;2023-02-20T08:58:01;100479.75;;;31.74;54.10
36798;BME280;22748;8.426;99.512;2023-02-20T09:00:33;100479.31;;;31.77;54.26
36798;BME280;22748;8.426;99.512;2023-02-20T09:03:08;100476.00;;;31.75;53.32
36798;BME280;22748;8.426;99.512;2023-02-20T09:05:42;100478.81;;;31.81;53.09
36798;BME280;22748;8.426;99.512;2023-02-20T09:08:26;100471.31;;;31.83;53.21
36798;BME280;22748;8.426;99.512;2023-02-20T09:11:03;100470.63;;;31.75;52.66
36798;BME280;22748;8.426;99.512;2023-02-20T09:13:41;100472.25;;;31.76;52.75
36798;BME280;22748;8.426;99.512;2023-02-20T09:16:13;100469.22;;;31.85;52.68
36798;BME280;22748;8.426;99.512;2023-02-20T09:18:46;100469.09;;;31.91;52.75
36798;BME280;22748;8.426;99.512;2023-02-20T09:21:17;100474.59;;;31.96;52.49
36798;BME280;22748;8.426;99.512;2023-02-20T09:23:48;100481.47;;;31.99;52.12
36798;BME280;22748;8.426;99.512;2023-02-20T09:26:19;100481.00;;;32.02;52.21
36798;BME280;22748;8.426;99.512;2023-02-20T09:28:51;100468.91;;;32.05;52.79
36798;BME280;22748;8.426;99.512;2023-02-20T09:31:24;100470.56;;;32.06;52.65
36798;BME280;22748;8.426;99.512;2023-02-20T09:33:57;100470.31;;;32.07;52.66
36798;BME280;22748;8.426;99.512;2023-02-20T09:36:28;100477.38;;;32.08;52.85
36798;BME280;22748;8.426;99.512;2023-02-20T09:39:00;100486.50;;;32.07;52.78
36798;BME280;22748;8.426;99.512;2023-02-20T09:41:43;100483.81;;;32.07;52.84
36798;BME280;22748;8.426;99.512;2023-02-20T09:44:20;100491.31;;;32.05;53.18
36798;BME280;22748;8.426;99.512;2023-02-20T09:46:52;100494.50;;;32.02;53.82
36798;BME280;22748;8.426;99.512;2023-02-20T09:49:30;100503.09;;;31.99;53.83
36798;BME280;22748;8.426;99.512;2023-02-20T09:52:05;100503.41;;;32.03;54.00
36798;BME280;22748;8.426;99.512;2023-02-20T09:54:38;100502.59;;;32.02;53.87
36798;BME280;22748;8.426;99.512;2023-02-20T09:57:16;100511.53;;;32.03;54.04
36798;BME280;22748;8.426;99.512;2023-02-20T09:59:51;100516.47;;;32.06;53.76
36798;BME280;22748;8.426;99.512;2023-02-20T10:02:25;100525.28;;;32.01;53.87
36798;BME280;22748;8.426;99.512;2023-02-20T10:05:03;100525.03;;;32.03;53.81
36798;BME280;22748;8.426;99.512;2023-02-20T10:07:37;100521.28;;;32.04;53.92
36798;BME280;22748;8.426;99.512;2023-02-20T10:10:19;100520.44;;;32.03;54.26
36798;BME280;22748;8.426;99.512;2023-02-20T10:13:00;100520.22;;;32.05;54.13
36798;BME280;22748;8.426;99.512;2023-02-20T10:15:39;100518.00;;;32.02;54.22
36798;BME280;22748;8.426;99.512;2023-02-20T10:18:23;100529.03;;;32.00;54.37
36798;BME280;22748;8.426;99.512;2023-02-20T10:21:11;100537.56;;;31.97;54.48
36798;BME280;22748;8.426;99.512;2023-02-20T10:23:48;100537.94;;;32.01;54.50
36798;BME280;22748;8.426;99.512;2023-02-20T10:26:26;100540.06;;;31.98;54.79
36798;BME280;22748;8.426;99.512;2023-02-20T10:29:09;100560.84;;;31.98;54.75
36798;BME280;22748;8.426;99.512;2023-02-20T10:31:48;100560.44;;;31.94;54.98
36798;BME280;22748;8.426;99.512;2023-02-20T10:34:27;100562.09;;;31.95;54.99
36798;BME280;22748;8.426;99.512;2023-02-20T10:37:12;100571.66;;;31.98;54.81
36798;BME280;22748;8.426;99.512;2023-02-20T10:39:52;100574.34;;;31.98;54.76
36798;BME280;22748;8.426;99.512;2023-02-20T10:42:31;100574.44;;;31.91;54.82
36798;BME280;22748;8.426;99.512;2023-02-20T10:45:09;100577.94;;;31.92;55.08
36798;BME280;22748;8.426;99.512;2023-02-20T10:47:47;100578.19;;;31.90;54.83
36798;BME280;22748;8.426;99.512;2023-02-20T10:50:23;100586.31;;;31.90;55.03
36798;BME280;22748;8.426;99.512;2023-02-20T10:53:00;100586.75;;;31.87;54.82
36798;BME280;22748;8.426;99.512;2023-02-20T10:55:38;100599.44;;;31.87;54.97
36798;BME280;22748;8.426;99.512;2023-02-20T10:58:16;100613.53;;;31.89;55.20
36798;BME280;22748;8.426;99.512;2023-02-20T11:00:55;100605.44;;;31.89;55.03
36798;BME280;22748;8.426;99.512;2023-02-20T11:03:35;100618.34;;;31.87;54.90
36798;BME280;22748;8.426;99.512;2023-02-20T11:06:15;100613.41;;;31.84;54.86
36798;BME280;22748;8.426;99.512;2023-02-20T11:08:49;100613.84;;;31.81;55.09
36798;BME280;22748;8.426;99.512;2023-02-20T11:11:29;100621.81;;;31.75;55.05
36798;BME280;22748;8.426;99.512;2023-02-20T11:14:10;100634.13;;;31.71;55.28
36798;BME280;22748;8.426;99.512;2023-02-20T11:16:46;100645.53;;;31.73;55.09
36798;BME280;22748;8.426;99.512;2023-02-20T11:19:20;100652.38;;;31.58;55.69
36798;BME280;22748;8.426;99.512;2023-02-20T11:21:55;100649.66;;;31.39;56.13
36798;BME280;22748;8.426;99.512;2023-02-20T11:24:32;100654.00;;;31.22;56.38
36798;BME280;22748;8.426;99.512;2023-02-20T11:27:09;100658.19;;;31.17;56.88
36798;BME280;22748;8.426;99.512;2023-02-20T11:29:47;100668.06;;;31.05;56.71
36798;BME280;22748;8.426;99.512;2023-02-20T11:32:36;100664.25;;;30.94;57.22
36798;BME280;22748;8.426;99.512;2023-02-20T11:35:23;100661.84;;;31.05;57.02
36798;BME280;22748;8.426;99.512;2023-02-20T11:44:17;100668.22;;;31.29;57.07
36798;BME280;22748;8.426;99.512;2023-02-20T11:47:09;100671.91;;;31.34;56.81
36798;BME280;22748;8.426;99.512;2023-02-20T11:49:39;100680.41;;;31.38;56.81
36798;BME280;22748;8.426;99.512;2023-02-20T11:52:16;100684.13;;;31.37;56.61
36798;BME280;22748;8.426;99.512;2023-02-20T11:54:49;100686.63;;;31.39;57.11
36798;BME280;22748;8.426;99.512;2023-02-20T11:57:42;100698.22;;;31.39;56.72
36798;BME280;22748;8.426;99.512;2023-02-20T12:00:16;100703.63;;;31.39;57.03
36798;BME280;22748;8.426;99.512;2023-02-20T12:02:56;100707.38;;;31.38;56.93
36798;BME280;22748;8.426;99.512;2023-02-20T12:05:40;100713.59;;;31.39;56.52
36798;BME280;22748;8.426;99.512;2023-02-20T12:08:30;100717.78;;;31.34;56.87
36798;BME280;22748;8.426;99.512;2023-02-20T12:11:05;100720.63;;;31.40;56.77
36798;BME280;22748;8.426;99.512;2023-02-20T12:13:40;100729.34;;;31.42;56.78
36798;BME280;22748;8.426;99.512;2023-02-20T12:16:29;100724.16;;;31.40;56.46
36798;BME280;22748;8.426;99.512;2023-02-20T12:19:10;100727.69;;;31.41;56.58
36798;BME280;22748;8.426;99.512;2023-02-20T12:21:53;100729.34;;;31.42;56.71
36798;BME280;22748;8.426;99.512;2023-02-20T12:24:51;100730.19;;;31.42;56.67
36798;BME280;22748;8.426;99.512;2023-02-20T12:27:47;100736.44;;;31.43;56.62
36798;BME280;22748;8.426;99.512;2023-02-20T12:30:38;100735.69;;;31.29;56.20
36798;BME280;22748;8.426;99.512;2023-02-20T12:33:33;100739.88;;;31.25;56.43
36798;BME280;22748;8.426;99.512;2023-02-20T12:36:09;100749.41;;;31.27;56.37
36798;BME280;22748;8.426;99.512;2023-02-20T12:38:57;100744.03;;;31.27;56.80
36798;BME280;22748;8.426;99.512;2023-02-20T12:41:54;100746.13;;;31.25;56.78
36798;BME280;22748;8.426;99.512;2023-02-20T12:44:49;100746.13;;;31.25;56.98
36798;BME280;22748;8.426;99.512;2023-02-20T12:47:30;100754.22;;;31.25;56.85
36798;BME280;22748;8.426;99.512;2023-02-20T12:53:20;100751.34;;;31.20;57.12
36798;BME280;22748;8.426;99.512;2023-02-20T12:56:03;100751.13;;;31.22;57.56
36798;BME280;22748;8.426;99.512;2023-02-20T12:58:50;100761.69;;;31.23;57.76
36798;BME280;22748;8.426;99.512;2023-02-20T13:01:25;100761.47;;;31.25;57.51
36798;BME280;22748;8.426;99.512;2023-02-20T13:04:04;100775.19;;;31.23;57.70
36798;BME280;22748;8.426;99.512;2023-02-20T13:06:42;100777.91;;;31.23;57.94
36798;BME280;22748;8.426;99.512;2023-02-20T13:09:19;100777.28;;;31.21;57.57
36798;BME280;22748;8.426;99.512;2023-02-20T13:11:55;100773.16;;;31.19;57.50
36798;BME280;22748;8.426;99.512;2023-02-20T13:14:41;100786.88;;;31.17;57.57
36798;BME280;22748;8.426;99.512;2023-02-20T13:17:25;100797.06;;;31.15;57.75
36798;BME280;22748;8.426;99.512;2023-02-20T13:20:09;100803.47;;;31.14;57.77
36798;BME280;22748;8.426;99.512;2023-02-20T13:22:41;100812.63;;;31.13;57.81
36798;BME280;22748;8.426;99.512;2023-02-20T13:25:35;100814.72;;;31.11;57.98
36798;BME280;22748;8.426;99.512;2023-02-20T13:28:33;100822.19;;;31.09;58.09
36798;BME280;22748;8.426;99.512;2023-02-20T13:31:15;100828.41;;;31.09;58.37
36798;BME280;22748;8.426;99.512;2023-02-20T13:33:47;100834.66;;;31.10;58.48
36798;BME280;22748;8.426;99.512;2023-02-20T13:36:40;100841.28;;;31.07;58.60
36798;BME280;22748;8.426;99.512;2023-02-20T13:39:26;100840.47;;;31.07;58.49
36798;BME280;22748;8.426;99.512;2023-02-20T13:42:00;100845.88;;;31.07;58.43
36798;BME280;22748;8.426;99.512;2023-02-20T13:44:42;100849.63;;;31.06;58.40
36798;BME280;22748;8.426;99.512;2023-02-20T13:47:34;100858.34;;;31.08;58.71
36798;BME280;22748;8.426;99.512;2023-02-20T13:50:27;100858.34;;;31.08;58.43